sensor_id;sensor_type;location;lat;lon;timestamp;temperature;humidity
27848;DHT22;15212;48.830;8.730;2023-12-22T00:00:38;6.60;99.90
27848;DHT22;15212;48.830;8.730;2023-12-22T00:03:06;6.60;99.90
27848;DHT22;15212;48.830;8.730;2023-12-22T00:05:35;6.60;99.90
27848;DHT22;15212;48.830;8.730;2023-12-22T00:08:03;6.60;99.90
27848;DHT22;15212;48.830;8.730;2023-12-22T00:10:32;6.50;99.90
27848;DHT22;15212;48.830;8.730;2023-12-22T00:13:00;6.50;99.90
27848;DHT22;15212;48.830;8.730;2023-12-22T00:15:29;6.50;99.90
27848;DHT22;15212;48.830;8.730;2023-12-22T00:17:57;6.50;99.90
27848;DHT22;15212;48.830;8.730;2023-12-22T00:20:26;6.40;99.90
27848;DHT22;15212;48.830;8.730;2023-12-22T00:22:54;6.40;99.90
27848;DHT22;15212;48.830;8.730;2023-12-22T00:25:22;6.40;99.90
27848;DHT22;15212;48.830;8.730;2023-12-22T00:27:51;6.40;99.90
27848;DHT22;15212;48.830;8.730;2023-12-22T00:30:20;6.40;99.90
27848;DHT22;15212;48.830;8.730;2023-12-22T00:32:50;6.40;99.90
27848;DHT22;15212;48.830;8.730;2023-12-22T00:35:18;6.40;99.90
27848;DHT22;15212;48.830;8.730;2023-12-22T00:37:47;6.40;99.90
27848;DHT22;15212;48.830;8.730;2023-12-22T00:40:15;6.40;99.90
27848;DHT22;15212;48.830;8.730;2023-12-22T00:42:43;6.40;99.90
27848;DHT22;15212;48.830;8.730;2023-12-22T00:45:12;6.40;99.90
27848;DHT22;15212;48.830;8.730;2023-12-22T00:47:40;6.40;99.90
27848;DHT22;15212;48.830;8.730;2023-12-22T00:50:09;6.40;99.90
27848;DHT22;15212;48.830;8.730;2023-12-22T00:52:37;6.40;99.90
27848;DHT22;15212;48.830;8.730;2023-12-22T00:55:06;6.40;99.90
27848;DHT22;15212;48.830;8.730;2023-12-22T00:57:34;6.40;99.90
27848;DHT22;15212;48.830;8.730;2023-12-22T01:00:03;6.40;99.90
27848;DHT22;15212;48.830;8.730;2023-12-22T01:02:33;6.40;99.90
27848;DHT22;15212;48.830;8.730;2023-12-22T01:05:02;6.30;99.90
27848;DHT22;15212;48.830;8.730;2023-12-22T01:07:30;6.30;99.90
27848;DHT22;15212;48.830;8.730;2023-12-22T01:09:59;6.30;99.90
27848;DHT22;15212;48.830;8.730;2023-12-22T01:12:28;6.30;99.90
27848;DHT22;15212;48.830;8.730;2023-12-22T01:14:57;6.30;99.90
27848;DHT22;15212;48.830;8.730;2023-12-22T01:17:26;6.30;99.90
27848;DHT22;15212;48.830;8.730;2023-12-22T01:19:54;6.20;99.90
27848;DHT22;15212;48.830;8.730;2023-12-22T01:22:22;6.20;99.90
27848;DHT22;15212;48.830;8.730;2023-12-22T01:24:51;6.20;99.90
27848;DHT22;15212;48.830;8.730;2023-12-22T01:27:19;6.20;99.90
27848;DHT22;15212;48.830;8.730;2023-12-22T01:29:48;6.20;99.90
27848;DHT22;15212;48.830;8.730;2023-12-22T01:32:16;6.20;99.90
27848;DHT22;15212;48.830;8.730;2023-12-22T01:34:46;6.20;99.90
27848;DHT22;15212;48.830;8.730;2023-12-22T01:37:14;6.20;99.90
27848;DHT22;15212;48.830;8.730;2023-12-22T01:39:42;6.20;99.90
27848;DHT22;15212;48.830;8.730;2023-12-22T01:42:11;6.20;99.90
27848;DHT22;15212;48.830;8.730;2023-12-22T01:44:39;6.10;99.90
27848;DHT22;15212;48.830;8.730;2023-12-22T01:47:07;6.10;99.90
27848;DHT22;15212;48.830;8.730;2023-12-22T01:49:36;6.10;99.90
27848;DHT22;15212;48.830;8.730;2023-12-22T01:52:04;6.00;99.90
27848;DHT22;15212;48.830;8.730;2023-12-22T01:54:33;6.00;99.90
27848;DHT22;15212;48.830;8.730;2023-12-22T01:57:02;6.00;99.90
27848;DHT22;15212;48.830;8.730;2023-12-22T01:59:31;5.90;99.90
27848;DHT22;15212;48.830;8.730;2023-12-22T02:02:02;5.90;99.90
27848;DHT22;15212;48.830;8.730;2023-12-22T02:04:31;5.90;99.90
27848;DHT22;15212;48.830;8.730;2023-12-22T02:07:02;5.90;99.90
27848;DHT22;15212;48.830;8.730;2023-12-22T02:09:30;5.90;99.90
27848;DHT22;15212;48.830;8.730;2023-12-22T02:11:59;5.90;99.90
27848;DHT22;15212;48.830;8.730;2023-12-22T02:14:27;5.90;99.90
27848;DHT22;15212;48.830;8.730;2023-12-22T02:17:02;5.80;99.90
27848;DHT22;15212;48.830;8.730;2023-12-22T02:19:42;5.90;99.90
27848;DHT22;15212;48.830;8.730;2023-12-22T02:22:12;5.80;99.90
27848;DHT22;15212;48.830;8.730;2023-12-22T02:24:41;5.90;99.90
27848;DHT22;15212;48.830;8.730;2023-12-22T02:30:32;5.90;99.90
27848;DHT22;15212;48.830;8.730;2023-12-22T02:33:21;5.90;99.90
27848;DHT22;15212;48.830;8.730;2023-12-22T02:35:52;5.90;99.90
27848;DHT22;15212;48.830;8.730;2023-12-22T02:38:25;6.00;99.90
27848;DHT22;15212;48.830;8.730;2023-12-22T02:40:54;6.00;99.90
27848;DHT22;15212;48.830;8.730;2023-12-22T02:43:23;6.00;99.90
27848;DHT22;15212;48.830;8.730;2023-12-22T02:45:52;6.00;99.90
27848;DHT22;15212;48.830;8.730;2023-12-22T02:48:20;6.00;99.90
27848;DHT22;15212;48.830;8.730;2023-12-22T02:50:48;6.00;99.90
27848;DHT22;15212;48.830;8.730;2023-12-22T02:53:17;6.00;99.90
27848;DHT22;15212;48.830;8.730;2023-12-22T02:55:45;6.10;99.90
27848;DHT22;15212;48.830;8.730;2023-12-22T02:58:14;6.00;99.90
27848;DHT22;15212;48.830;8.730;2023-12-22T03:00:42;6.00;99.90
27848;DHT22;15212;48.830;8.730;2023-12-22T03:03:10;6.00;99.90
27848;DHT22;15212;48.830;8.730;2023-12-22T03:05:40;6.00;99.90
27848;DHT22;15212;48.830;8.730;2023-12-22T03:08:08;6.10;99.90
27848;DHT22;15212;48.830;8.730;2023-12-22T03:10:36;6.10;99.90
27848;DHT22;15212;48.830;8.730;2023-12-22T03:13:05;6.10;99.90
27848;DHT22;15212;48.830;8.730;2023-12-22T03:15:33;6.00;99.90
27848;DHT22;15212;48.830;8.730;2023-12-22T03:18:01;6.00;99.90
27848;DHT22;15212;48.830;8.730;2023-12-22T03:20:30;6.00;99.90
27848;DHT22;15212;48.830;8.730;2023-12-22T03:22:59;6.00;99.90
27848;DHT22;15212;48.830;8.730;2023-12-22T03:25:27;6.00;99.90
27848;DHT22;15212;48.830;8.730;2023-12-22T03:27:55;6.00;99.90
27848;DHT22;15212;48.830;8.730;2023-12-22T03:30:24;5.90;99.90
27848;DHT22;15212;48.830;8.730;2023-12-22T03:32:52;5.90;99.90
27848;DHT22;15212;48.830;8.730;2023-12-22T03:35:21;5.90;99.90
27848;DHT22;15212;48.830;8.730;2023-12-22T03:37:49;5.90;99.90
27848;DHT22;15212;48.830;8.730;2023-12-22T03:40:17;5.90;99.90
27848;DHT22;15212;48.830;8.730;2023-12-22T03:42:46;6.00;99.90
27848;DHT22;15212;48.830;8.730;2023-12-22T03:45:14;6.00;99.90
27848;DHT22;15212;48.830;8.730;2023-12-22T03:47:43;6.00;99.90
27848;DHT22;15212;48.830;8.730;2023-12-22T03:50:11;6.00;99.90
27848;DHT22;15212;48.830;8.730;2023-12-22T03:52:39;6.00;99.90
27848;DHT22;15212;48.830;8.730;2023-12-22T03:55:08;6.00;99.90
27848;DHT22;15212;48.830;8.730;2023-12-22T03:57:36;6.00;99.90
27848;DHT22;15212;48.830;8.730;2023-12-22T04:00:05;6.00;99.90
27848;DHT22;15212;48.830;8.730;2023-12-22T04:02:34;6.00;99.90
27848;DHT22;15212;48.830;8.730;2023-12-22T04:05:03;6.00;99.90
27848;DHT22;15212;48.830;8.730;2023-12-22T04:07:31;6.00;99.90
27848;DHT22;15212;48.830;8.730;2023-12-22T04:10:00;6.00;99.90
27848;DHT22;15212;48.830;8.730;2023-12-22T04:12:28;6.00;99.90
27848;DHT22;15212;48.830;8.730;2023-12-22T04:14:57;5.90;99.90
27848;DHT22;15212;48.830;8.730;2023-12-22T04:17:25;5.80;99.90
27848;DHT22;15212;48.830;8.730;2023-12-22T04:19:53;5.80;99.90
27848;DHT22;15212;48.830;8.730;2023-12-22T04:22:22;5.80;99.90
27848;DHT22;15212;48.830;8.730;2023-12-22T04:24:50;5.80;99.90
27848;DHT22;15212;48.830;8.730;2023-12-22T04:27:18;5.80;99.90
27848;DHT22;15212;48.830;8.730;2023-12-22T04:29:47;5.80;99.90
27848;DHT22;15212;48.830;8.730;2023-12-22T04:32:15;5.70;99.90
27848;DHT22;15212;48.830;8.730;2023-12-22T04:34:43;5.70;99.90
27848;DHT22;15212;48.830;8.730;2023-12-22T04:37:12;5.70;99.90
27848;DHT22;15212;48.830;8.730;2023-12-22T04:39:40;5.70;99.90
27848;DHT22;15212;48.830;8.730;2023-12-22T04:42:09;5.70;99.90
27848;DHT22;15212;48.830;8.730;2023-12-22T04:44:37;5.70;99.90
27848;DHT22;15212;48.830;8.730;2023-12-22T04:47:06;5.70;99.90
27848;DHT22;15212;48.830;8.730;2023-12-22T04:49:34;5.70;99.90
27848;DHT22;15212;48.830;8.730;2023-12-22T04:52:02;5.70;99.90
27848;DHT22;15212;48.830;8.730;2023-12-22T04:54:31;5.70;99.90
27848;DHT22;15212;48.830;8.730;2023-12-22T04:56:59;5.70;99.90
27848;DHT22;15212;48.830;8.730;2023-12-22T04:59:28;5.70;99.90
27848;DHT22;15212;48.830;8.730;2023-12-22T05:01:56;5.80;99.90
27848;DHT22;15212;48.830;8.730;2023-12-22T05:04:25;5.70;99.90
27848;DHT22;15212;48.830;8.730;2023-12-22T05:06:54;5.80;99.90
27848;DHT22;15212;48.830;8.730;2023-12-22T05:09:22;5.80;99.90
27848;DHT22;15212;48.830;8.730;2023-12-22T05:11:51;5.80;99.90
27848;DHT22;15212;48.830;8.730;2023-12-22T05:14:20;5.80;99.90
27848;DHT22;15212;48.830;8.730;2023-12-22T05:16:48;5.90;99.90
27848;DHT22;15212;48.830;8.730;2023-12-22T05:19:18;5.90;99.90
27848;DHT22;15212;48.830;8.730;2023-12-22T05:21:46;5.90;99.90
27848;DHT22;15212;48.830;8.730;2023-12-22T05:24:19;5.90;99.90
27848;DHT22;15212;48.830;8.730;2023-12-22T05:26:48;5.90;99.90
27848;DHT22;15212;48.830;8.730;2023-12-22T05:29:16;5.90;99.90
27848;DHT22;15212;48.830;8.730;2023-12-22T05:31:45;5.90;99.90
27848;DHT22;15212;48.830;8.730;2023-12-22T05:34:13;5.90;99.90
27848;DHT22;15212;48.830;8.730;2023-12-22T05:36:41;6.00;99.90
27848;DHT22;15212;48.830;8.730;2023-12-22T05:39:10;6.00;99.90
27848;DHT22;15212;48.830;8.730;2023-12-22T05:41:38;6.00;99.90
27848;DHT22;15212;48.830;8.730;2023-12-22T05:44:07;6.10;99.90
27848;DHT22;15212;48.830;8.730;2023-12-22T05:46:38;6.10;99.90
27848;DHT22;15212;48.830;8.730;2023-12-22T05:49:06;6.10;99.90
27848;DHT22;15212;48.830;8.730;2023-12-22T05:51:39;6.10;99.90
27848;DHT22;15212;48.830;8.730;2023-12-22T05:54:08;6.10;99.90
27848;DHT22;15212;48.830;8.730;2023-12-22T05:56:38;6.10;99.90
27848;DHT22;15212;48.830;8.730;2023-12-22T05:59:06;6.10;99.90
27848;DHT22;15212;48.830;8.730;2023-12-22T06:01:35;6.10;99.90
27848;DHT22;15212;48.830;8.730;2023-12-22T06:04:03;6.10;99.90
27848;DHT22;15212;48.830;8.730;2023-12-22T06:06:32;6.10;99.90
27848;DHT22;15212;48.830;8.730;2023-12-22T06:09:00;6.10;99.90
27848;DHT22;15212;48.830;8.730;2023-12-22T06:11:29;6.10;99.90
27848;DHT22;15212;48.830;8.730;2023-12-22T06:13:57;6.10;99.90
27848;DHT22;15212;48.830;8.730;2023-12-22T06:16:25;6.10;99.90
27848;DHT22;15212;48.830;8.730;2023-12-22T06:18:54;6.10;99.90
27848;DHT22;15212;48.830;8.730;2023-12-22T06:21:22;6.10;99.90
27848;DHT22;15212;48.830;8.730;2023-12-22T06:23:51;6.10;99.90
27848;DHT22;15212;48.830;8.730;2023-12-22T06:26:19;6.10;99.90
27848;DHT22;15212;48.830;8.730;2023-12-22T06:28:48;6.10;99.90
27848;DHT22;15212;48.830;8.730;2023-12-22T06:31:18;6.10;99.90
27848;DHT22;15212;48.830;8.730;2023-12-22T06:33:48;6.10;99.90
27848;DHT22;15212;48.830;8.730;2023-12-22T06:36:24;6.10;99.90
27848;DHT22;15212;48.830;8.730;2023-12-22T06:38:52;6.10;99.90
27848;DHT22;15212;48.830;8.730;2023-12-22T06:41:29;6.10;99.90
27848;DHT22;15212;48.830;8.730;2023-12-22T06:43:59;6.00;99.90
27848;DHT22;15212;48.830;8.730;2023-12-22T06:46:28;5.90;99.90
27848;DHT22;15212;48.830;8.730;2023-12-22T06:48:57;5.80;99.90
27848;DHT22;15212;48.830;8.730;2023-12-22T06:51:28;5.70;99.90
27848;DHT22;15212;48.830;8.730;2023-12-22T06:53:57;5.70;99.90
27848;DHT22;15212;48.830;8.730;2023-12-22T06:56:30;5.70;99.90
27848;DHT22;15212;48.830;8.730;2023-12-22T06:59:00;5.70;99.90
27848;DHT22;15212;48.830;8.730;2023-12-22T07:01:32;5.70;99.90
27848;DHT22;15212;48.830;8.730;2023-12-22T07:04:02;5.70;99.90
27848;DHT22;15212;48.830;8.730;2023-12-22T07:06:34;5.70;99.90
27848;DHT22;15212;48.830;8.730;2023-12-22T07:11:51;5.70;99.90
27848;DHT22;15212;48.830;8.730;2023-12-22T07:14:21;5.70;99.90
27848;DHT22;15212;48.830;8.730;2023-12-22T07:16:49;5.70;99.90
27848;DHT22;15212;48.830;8.730;2023-12-22T07:19:17;5.70;99.90
27848;DHT22;15212;48.830;8.730;2023-12-22T07:21:46;5.70;99.90
27848;DHT22;15212;48.830;8.730;2023-12-22T07:24:14;5.60;99.90
27848;DHT22;15212;48.830;8.730;2023-12-22T07:26:43;5.60;99.90
27848;DHT22;15212;48.830;8.730;2023-12-22T07:29:11;5.60;99.90
27848;DHT22;15212;48.830;8.730;2023-12-22T07:31:39;5.60;99.90
27848;DHT22;15212;48.830;8.730;2023-12-22T07:34:08;5.60;99.90
27848;DHT22;15212;48.830;8.730;2023-12-22T07:36:37;5.60;99.90
27848;DHT22;15212;48.830;8.730;2023-12-22T07:39:05;5.60;99.90
27848;DHT22;15212;48.830;8.730;2023-12-22T07:41:35;5.60;99.90
27848;DHT22;15212;48.830;8.730;2023-12-22T07:44:04;5.60;99.90
27848;DHT22;15212;48.830;8.730;2023-12-22T07:46:32;5.60;99.90
27848;DHT22;15212;48.830;8.730;2023-12-22T07:49:00;5.60;99.90
27848;DHT22;15212;48.830;8.730;2023-12-22T07:51:29;5.60;99.90
27848;DHT22;15212;48.830;8.730;2023-12-22T07:53:57;5.60;99.90
27848;DHT22;15212;48.830;8.730;2023-12-22T07:56:26;5.60;99.90
27848;DHT22;15212;48.830;8.730;2023-12-22T07:58:54;5.70;99.90
27848;DHT22;15212;48.830;8.730;2023-12-22T08:01:22;5.70;99.90
27848;DHT22;15212;48.830;8.730;2023-12-22T08:03:51;5.70;99.90
27848;DHT22;15212;48.830;8.730;2023-12-22T08:06:19;5.70;99.90
27848;DHT22;15212;48.830;8.730;2023-12-22T08:08:47;5.70;99.90
27848;DHT22;15212;48.830;8.730;2023-12-22T08:11:16;5.70;99.90
27848;DHT22;15212;48.830;8.730;2023-12-22T08:13:46;5.70;99.90
27848;DHT22;15212;48.830;8.730;2023-12-22T08:16:15;5.80;99.90
27848;DHT22;15212;48.830;8.730;2023-12-22T08:18:43;5.80;99.90
27848;DHT22;15212;48.830;8.730;2023-12-22T08:21:11;5.80;99.90
27848;DHT22;15212;48.830;8.730;2023-12-22T08:23:43;5.80;99.90
27848;DHT22;15212;48.830;8.730;2023-12-22T08:26:11;5.80;99.90
27848;DHT22;15212;48.830;8.730;2023-12-22T08:28:41;5.80;99.90
27848;DHT22;15212;48.830;8.730;2023-12-22T08:31:10;5.80;99.90
27848;DHT22;15212;48.830;8.730;2023-12-22T08:33:38;5.80;99.90
27848;DHT22;15212;48.830;8.730;2023-12-22T08:36:09;5.80;99.90
27848;DHT22;15212;48.830;8.730;2023-12-22T08:38:40;5.80;99.90
27848;DHT22;15212;48.830;8.730;2023-12-22T08:41:08;5.90;99.90
27848;DHT22;15212;48.830;8.730;2023-12-22T08:43:38;5.90;99.90
27848;DHT22;15212;48.830;8.730;2023-12-22T08:46:07;5.90;99.90
27848;DHT22;15212;48.830;8.730;2023-12-22T08:48:36;5.90;99.90
27848;DHT22;15212;48.830;8.730;2023-12-22T08:51:04;6.00;99.90
27848;DHT22;15212;48.830;8.730;2023-12-22T08:53:34;6.00;99.90
27848;DHT22;15212;48.830;8.730;2023-12-22T08:56:03;6.00;99.90
27848;DHT22;15212;48.830;8.730;2023-12-22T08:58:33;6.00;99.90
27848;DHT22;15212;48.830;8.730;2023-12-22T09:01:02;6.00;99.90
27848;DHT22;15212;48.830;8.730;2023-12-22T09:03:33;6.10;99.90
27848;DHT22;15212;48.830;8.730;2023-12-22T09:06:02;6.10;99.90
27848;DHT22;15212;48.830;8.730;2023-12-22T09:08:30;6.10;99.90
27848;DHT22;15212;48.830;8.730;2023-12-22T09:10:59;6.10;99.90
27848;DHT22;15212;48.830;8.730;2023-12-22T09:13:27;6.20;99.90
27848;DHT22;15212;48.830;8.730;2023-12-22T09:15:57;6.20;99.90
27848;DHT22;15212;48.830;8.730;2023-12-22T09:18:26;6.20;99.90
27848;DHT22;15212;48.830;8.730;2023-12-22T09:20:54;6.20;99.90
27848;DHT22;15212;48.830;8.730;2023-12-22T09:23:23;6.20;99.90
27848;DHT22;15212;48.830;8.730;2023-12-22T09:25:51;6.20;99.90
27848;DHT22;15212;48.830;8.730;2023-12-22T09:28:19;6.20;99.90
27848;DHT22;15212;48.830;8.730;2023-12-22T09:30:48;6.20;99.90
27848;DHT22;15212;48.830;8.730;2023-12-22T09:33:16;6.20;99.90
27848;DHT22;15212;48.830;8.730;2023-12-22T09:35:45;6.20;99.90
27848;DHT22;15212;48.830;8.730;2023-12-22T09:38:14;6.20;99.90
27848;DHT22;15212;48.830;8.730;2023-12-22T09:40:42;6.20;99.90
27848;DHT22;15212;48.830;8.730;2023-12-22T09:43:12;6.30;99.90
27848;DHT22;15212;48.830;8.730;2023-12-22T09:45:46;6.30;99.90
27848;DHT22;15212;48.830;8.730;2023-12-22T09:48:18;6.30;99.90
27848;DHT22;15212;48.830;8.730;2023-12-22T09:50:50;6.30;99.90
27848;DHT22;15212;48.830;8.730;2023-12-22T09:53:20;6.30;99.90
27848;DHT22;15212;48.830;8.730;2023-12-22T09:55:49;6.30;99.90
27848;DHT22;15212;48.830;8.730;2023-12-22T09:58:18;6.40;99.90
27848;DHT22;15212;48.830;8.730;2023-12-22T10:00:47;6.40;99.90
27848;DHT22;15212;48.830;8.730;2023-12-22T10:03:17;6.40;99.90
27848;DHT22;15212;48.830;8.730;2023-12-22T10:05:47;6.40;99.90
27848;DHT22;15212;48.830;8.730;2023-12-22T10:08:16;6.40;99.90
27848;DHT22;15212;48.830;8.730;2023-12-22T10:10:47;6.40;99.90
27848;DHT22;15212;48.830;8.730;2023-12-22T10:13:17;6.40;99.90
27848;DHT22;15212;48.830;8.730;2023-12-22T10:15:46;6.40;99.90
27848;DHT22;15212;48.830;8.730;2023-12-22T10:18:15;6.40;99.90
27848;DHT22;15212;48.830;8.730;2023-12-22T10:20:45;6.40;99.90
27848;DHT22;15212;48.830;8.730;2023-12-22T10:23:14;6.40;99.90
27848;DHT22;15212;48.830;8.730;2023-12-22T10:25:42;6.40;99.90
27848;DHT22;15212;48.830;8.730;2023-12-22T10:28:11;6.40;99.90
27848;DHT22;15212;48.830;8.730;2023-12-22T10:30:40;6.40;99.90
27848;DHT22;15212;48.830;8.730;2023-12-22T10:33:09;6.40;99.90
27848;DHT22;15212;48.830;8.730;2023-12-22T10:35:37;6.40;99.90
27848;DHT22;15212;48.830;8.730;2023-12-22T10:38:05;6.40;99.90
27848;DHT22;15212;48.830;8.730;2023-12-22T10:40:36;6.40;99.90
27848;DHT22;15212;48.830;8.730;2023-12-22T10:43:05;6.30;99.90
27848;DHT22;15212;48.830;8.730;2023-12-22T10:45:33;6.30;99.90
27848;DHT22;15212;48.830;8.730;2023-12-22T10:48:02;6.40;99.90
27848;DHT22;15212;48.830;8.730;2023-12-22T10:50:31;6.40;99.90
27848;DHT22;15212;48.830;8.730;2023-12-22T10:52:59;6.40;99.90
27848;DHT22;15212;48.830;8.730;2023-12-22T10:55:28;6.40;99.90
27848;DHT22;15212;48.830;8.730;2023-12-22T10:57:56;6.40;99.90
27848;DHT22;15212;48.830;8.730;2023-12-22T11:00:28;6.40;99.90
27848;DHT22;15212;48.830;8.730;2023-12-22T11:03:01;6.40;99.90
27848;DHT22;15212;48.830;8.730;2023-12-22T11:05:33;6.40;99.90
27848;DHT22;15212;48.830;8.730;2023-12-22T11:08:06;6.30;99.90
27848;DHT22;15212;48.830;8.730;2023-12-22T11:10:39;6.30;99.90
27848;DHT22;15212;48.830;8.730;2023-12-22T11:13:10;6.40;99.90
27848;DHT22;15212;48.830;8.730;2023-12-22T11:15:40;6.40;99.90
27848;DHT22;15212;48.830;8.730;2023-12-22T11:18:10;6.40;99.90
27848;DHT22;15212;48.830;8.730;2023-12-22T11:20:38;6.30;99.90
27848;DHT22;15212;48.830;8.730;2023-12-22T11:23:08;6.30;99.90
27848;DHT22;15212;48.830;8.730;2023-12-22T11:25:38;6.30;99.90
27848;DHT22;15212;48.830;8.730;2023-12-22T11:28:07;6.20;99.90
27848;DHT22;15212;48.830;8.730;2023-12-22T11:30:37;6.20;99.90
27848;DHT22;15212;48.830;8.730;2023-12-22T11:33:06;6.20;99.90
27848;DHT22;15212;48.830;8.730;2023-12-22T11:35:37;6.20;99.90
27848;DHT22;15212;48.830;8.730;2023-12-22T11:38:06;6.20;99.90
27848;DHT22;15212;48.830;8.730;2023-12-22T11:40:36;6.10;99.90
27848;DHT22;15212;48.830;8.730;2023-12-22T11:43:04;6.10;99.90
27848;DHT22;15212;48.830;8.730;2023-12-22T11:45:33;6.10;99.90
27848;DHT22;15212;48.830;8.730;2023-12-22T11:48:09;6.10;99.90
27848;DHT22;15212;48.830;8.730;2023-12-22T11:50:38;6.10;99.90
27848;DHT22;15212;48.830;8.730;2023-12-22T11:53:29;6.10;99.90
27848;DHT22;15212;48.830;8.730;2023-12-22T11:56:06;6.10;99.90
27848;DHT22;15212;48.830;8.730;2023-12-22T11:58:48;6.10;99.90
27848;DHT22;15212;48.830;8.730;2023-12-22T12:01:23;6.10;99.90
27848;DHT22;15212;48.830;8.730;2023-12-22T12:03:56;6.10;99.90
27848;DHT22;15212;48.830;8.730;2023-12-22T12:06:30;6.20;99.90
27848;DHT22;15212;48.830;8.730;2023-12-22T12:09:03;6.20;99.90
27848;DHT22;15212;48.830;8.730;2023-12-22T12:14:29;6.30;99.90
27848;DHT22;15212;48.830;8.730;2023-12-22T12:17:09;6.30;99.90
27848;DHT22;15212;48.830;8.730;2023-12-22T12:19:39;6.40;99.90
27848;DHT22;15212;48.830;8.730;2023-12-22T12:22:12;6.40;99.90
27848;DHT22;15212;48.830;8.730;2023-12-22T12:24:42;6.40;99.90
27848;DHT22;15212;48.830;8.730;2023-12-22T12:27:16;6.50;99.90
27848;DHT22;15212;48.830;8.730;2023-12-22T12:29:43;6.50;99.90
27848;DHT22;15212;48.830;8.730;2023-12-22T12:32:16;6.50;99.90
27848;DHT22;15212;48.830;8.730;2023-12-22T12:34:45;6.60;99.90
27848;DHT22;15212;48.830;8.730;2023-12-22T12:37:14;6.60;99.90
27848;DHT22;15212;48.830;8.730;2023-12-22T12:39:44;6.70;99.90
27848;DHT22;15212;48.830;8.730;2023-12-22T12:42:16;6.80;99.90
27848;DHT22;15212;48.830;8.730;2023-12-22T12:44:44;6.80;99.90
27848;DHT22;15212;48.830;8.730;2023-12-22T12:47:17;6.90;99.90
27848;DHT22;15212;48.830;8.730;2023-12-22T12:49:46;6.90;99.90
27848;DHT22;15212;48.830;8.730;2023-12-22T12:52:16;7.00;99.90
27848;DHT22;15212;48.830;8.730;2023-12-22T12:54:45;7.00;99.90
27848;DHT22;15212;48.830;8.730;2023-12-22T12:57:15;7.00;99.90
27848;DHT22;15212;48.830;8.730;2023-12-22T12:59:50;7.10;99.90
27848;DHT22;15212;48.830;8.730;2023-12-22T13:02:19;7.10;99.90
27848;DHT22;15212;48.830;8.730;2023-12-22T13:04:49;7.10;99.90
27848;DHT22;15212;48.830;8.730;2023-12-22T13:07:26;7.10;99.90
27848;DHT22;15212;48.830;8.730;2023-12-22T13:09:55;7.10;99.90
27848;DHT22;15212;48.830;8.730;2023-12-22T13:12:24;7.10;99.90
27848;DHT22;15212;48.830;8.730;2023-12-22T13:14:53;7.20;99.90
27848;DHT22;15212;48.830;8.730;2023-12-22T13:17:22;7.20;99.90
27848;DHT22;15212;48.830;8.730;2023-12-22T13:19:50;7.20;99.90
27848;DHT22;15212;48.830;8.730;2023-12-22T13:22:19;7.20;99.90
27848;DHT22;15212;48.830;8.730;2023-12-22T13:24:57;7.20;99.90
27848;DHT22;15212;48.830;8.730;2023-12-22T13:27:25;7.20;99.90
27848;DHT22;15212;48.830;8.730;2023-12-22T13:29:54;7.20;99.90
27848;DHT22;15212;48.830;8.730;2023-12-22T13:32:23;7.20;99.90
27848;DHT22;15212;48.830;8.730;2023-12-22T13:34:53;7.20;99.90
27848;DHT22;15212;48.830;8.730;2023-12-22T13:37:22;7.20;99.90
27848;DHT22;15212;48.830;8.730;2023-12-22T13:39:52;7.20;99.90
27848;DHT22;15212;48.830;8.730;2023-12-22T13:42:21;7.30;99.90
27848;DHT22;15212;48.830;8.730;2023-12-22T13:44:50;7.30;99.90
27848;DHT22;15212;48.830;8.730;2023-12-22T13:47:19;7.30;99.90
27848;DHT22;15212;48.830;8.730;2023-12-22T13:49:49;7.30;99.90
27848;DHT22;15212;48.830;8.730;2023-12-22T13:52:31;7.30;99.90
27848;DHT22;15212;48.830;8.730;2023-12-22T13:55:01;7.30;99.90
27848;DHT22;15212;48.830;8.730;2023-12-22T13:57:31;7.30;99.90
27848;DHT22;15212;48.830;8.730;2023-12-22T14:00:00;7.30;99.90
27848;DHT22;15212;48.830;8.730;2023-12-22T14:02:28;7.30;99.90
27848;DHT22;15212;48.830;8.730;2023-12-22T14:04:57;7.30;99.90
27848;DHT22;15212;48.830;8.730;2023-12-22T14:07:25;7.40;99.90
27848;DHT22;15212;48.830;8.730;2023-12-22T14:09:53;7.40;99.90
27848;DHT22;15212;48.830;8.730;2023-12-22T14:12:22;7.40;99.90
27848;DHT22;15212;48.830;8.730;2023-12-22T14:14:50;7.40;99.90
27848;DHT22;15212;48.830;8.730;2023-12-22T14:17:18;7.40;99.90
27848;DHT22;15212;48.830;8.730;2023-12-22T14:19:47;7.40;99.90
27848;DHT22;15212;48.830;8.730;2023-12-22T14:22:18;7.40;99.90
27848;DHT22;15212;48.830;8.730;2023-12-22T14:24:46;7.40;99.90
27848;DHT22;15212;48.830;8.730;2023-12-22T14:27:15;7.50;99.90
27848;DHT22;15212;48.830;8.730;2023-12-22T14:29:45;7.40;99.90
27848;DHT22;15212;48.830;8.730;2023-12-22T14:32:13;7.40;99.90
27848;DHT22;15212;48.830;8.730;2023-12-22T14:34:44;7.40;99.90
27848;DHT22;15212;48.830;8.730;2023-12-22T14:37:12;7.40;99.90
27848;DHT22;15212;48.830;8.730;2023-12-22T14:39:43;7.50;99.90
27848;DHT22;15212;48.830;8.730;2023-12-22T14:42:12;7.50;99.90
27848;DHT22;15212;48.830;8.730;2023-12-22T14:44:41;7.50;99.90
27848;DHT22;15212;48.830;8.730;2023-12-22T14:47:10;7.50;99.90
27848;DHT22;15212;48.830;8.730;2023-12-22T14:49:38;7.50;99.90
27848;DHT22;15212;48.830;8.730;2023-12-22T14:52:07;7.50;99.90
27848;DHT22;15212;48.830;8.730;2023-12-22T14:54:35;7.50;99.90
27848;DHT22;15212;48.830;8.730;2023-12-22T14:57:04;7.50;99.90
27848;DHT22;15212;48.830;8.730;2023-12-22T14:59:32;7.50;99.90
27848;DHT22;15212;48.830;8.730;2023-12-22T15:02:00;7.50;99.90
27848;DHT22;15212;48.830;8.730;2023-12-22T15:04:33;7.50;99.90
27848;DHT22;15212;48.830;8.730;2023-12-22T15:07:01;7.50;99.90
27848;DHT22;15212;48.830;8.730;2023-12-22T15:09:30;7.50;99.90
27848;DHT22;15212;48.830;8.730;2023-12-22T15:11:58;7.50;99.90
27848;DHT22;15212;48.830;8.730;2023-12-22T15:14:27;7.50;99.90
27848;DHT22;15212;48.830;8.730;2023-12-22T15:16:55;7.50;99.90
27848;DHT22;15212;48.830;8.730;2023-12-22T15:19:23;7.50;99.90
27848;DHT22;15212;48.830;8.730;2023-12-22T15:21:52;7.60;99.90
27848;DHT22;15212;48.830;8.730;2023-12-22T15:24:21;7.50;99.90
27848;DHT22;15212;48.830;8.730;2023-12-22T15:26:51;7.50;99.90
27848;DHT22;15212;48.830;8.730;2023-12-22T15:29:19;7.50;99.90
27848;DHT22;15212;48.830;8.730;2023-12-22T15:31:48;7.50;99.90
27848;DHT22;15212;48.830;8.730;2023-12-22T15:34:16;7.50;99.90
27848;DHT22;15212;48.830;8.730;2023-12-22T15:36:45;7.50;99.90
27848;DHT22;15212;48.830;8.730;2023-12-22T15:39:13;7.50;99.90
27848;DHT22;15212;48.830;8.730;2023-12-22T15:41:41;7.50;99.90
27848;DHT22;15212;48.830;8.730;2023-12-22T15:44:10;7.50;99.90
27848;DHT22;15212;48.830;8.730;2023-12-22T15:46:39;7.50;99.90
27848;DHT22;15212;48.830;8.730;2023-12-22T15:49:07;7.50;99.90
27848;DHT22;15212;48.830;8.730;2023-12-22T15:51:36;7.60;99.90
27848;DHT22;15212;48.830;8.730;2023-12-22T15:54:04;7.60;99.90
27848;DHT22;15212;48.830;8.730;2023-12-22T15:56:33;7.60;99.90
27848;DHT22;15212;48.830;8.730;2023-12-22T15:59:01;7.60;99.90
27848;DHT22;15212;48.830;8.730;2023-12-22T16:01:29;7.50;99.90
27848;DHT22;15212;48.830;8.730;2023-12-22T16:03:58;7.50;99.90
27848;DHT22;15212;48.830;8.730;2023-12-22T16:06:26;7.50;99.90